Time;durP1;ratioP1;P1;durP2;ratioP2;P2;SDS_P1;SDS_P2;PMS_P1;PMS_P2;Temp;Humidity;BMP_temperature;BMP_pressure;BME280_temperature;BME280_humidity;BME280_pressure;Samples;Min_cycle;Max_cycle;Signal;HPM_P1;HPM_P2
2023/11/18 00:04:05;;;;;;;5.50;4.00;;;;;;;6.26;67.95;98997.79;234427;213;137146;-63
2023/11/18 00:09:08;;;;;;;4.50;3.80;;;;;;;6.26;68.23;98998.16;234392;215;147688;-64
2023/11/18 00:14:12;;;;;;;6.00;4.30;;;;;;;6.24;68.37;98997.53;234419;213;140416;-62
2023/11/18 00:19:17;;;;;;;5.00;3.70;;;;;;;6.26;68.33;99001.17;234442;215;137547;-63
2023/11/18 00:24:21;;;;;;;6.50;3.60;;;;;;;6.31;68.58;99003.92;234406;215;147717;-62
2023/11/18 00:29:25;;;;;;;4.50;3.00;;;;;;;6.21;68.37;99014.59;234547;215;140015;-62
2023/11/18 00:34:29;;;;;;;4.20;2.80;;;;;;;6.21;68.39;99021.48;234296;215;137505;-64
2023/11/18 00:39:32;;;;;;;3.40;2.40;;;;;;;6.25;68.13;99016.91;234311;215;147372;-64
2023/11/18 00:44:36;;;;;;;3.70;2.60;;;;;;;6.31;67.76;99021.52;234273;215;138814;-63
2023/11/18 00:49:39;;;;;;;3.60;2.60;;;;;;;6.38;67.46;99031.11;234443;215;137514;-62
2023/11/18 00:54:43;;;;;;;4.30;3.00;;;;;;;6.40;67.40;99029.08;234380;215;149237;-63
2023/11/18 00:59:46;;;;;;;5.20;3.50;;;;;;;6.37;67.79;99029.20;234497;215;139767;-63
2023/11/18 01:04:50;;;;;;;4.60;3.50;;;;;;;6.32;68.05;99029.25;234409;215;137752;-62
2023/11/18 01:09:53;;;;;;;5.60;3.50;;;;;;;6.31;68.16;99035.47;234386;215;148290;-65
2023/11/18 01:14:56;;;;;;;6.10;4.50;;;;;;;6.27;67.81;99029.63;234311;215;139889;-63
2023/11/18 01:20:06;;;;;;;5.10;4.20;;;;;;;6.25;67.91;99032.55;234310;216;140186;-64
2023/11/18 01:25:11;;;;;;;5.50;3.70;;;;;;;6.21;67.91;99037.51;234353;215;148192;-64
2023/11/18 01:30:15;;;;;;;7.40;4.40;;;;;;;6.11;67.98;99035.45;234370;214;138974;-64
2023/11/18 01:35:19;;;;;;;4.20;3.20;;;;;;;6.07;67.88;99038.98;234565;215;136612;-64
2023/11/18 01:40:23;;;;;;;4.60;2.70;;;;;;;6.10;67.63;99034.08;234362;215;147798;-65
2023/11/18 01:45:26;;;;;;;6.50;3.50;;;;;;;6.15;67.70;99032.99;234423;215;138717;-64
2023/11/18 01:50:31;;;;;;;5.20;3.70;;;;;;;6.20;67.79;99035.62;234486;213;137511;-63
2023/11/18 01:55:34;;;;;;;4.60;3.40;;;;;;;6.21;67.99;99038.55;234397;214;149423;-63
2023/11/18 02:00:42;;;;;;;5.30;3.80;;;;;;;6.21;68.20;99032.92;234435;213;141410;-64
2023/11/18 02:05:46;;;;;;;7.30;4.50;;;;;;;6.19;68.68;99035.66;234502;212;137430;-64
2023/11/18 02:10:57;;;;;;;5.20;4.00;;;;;;;6.19;68.81;99034.40;234441;215;147558;-64
2023/11/18 02:16:04;;;;;;;7.20;3.90;;;;;;;6.18;68.92;99032.69;234323;215;139334;-65
2023/11/18 02:21:08;;;;;;;5.90;4.10;;;;;;;6.15;69.14;99039.16;234355;215;137328;-62
2023/11/18 02:26:11;;;;;;;5.60;3.80;;;;;;;6.17;69.34;99039.44;234295;215;147390;-64
2023/11/18 02:31:21;;;;;;;5.20;4.00;;;;;;;6.17;69.60;99041.52;234479;213;139046;-62
2023/11/18 02:36:45;;;;;;;5.30;3.80;;;;;;;6.17;69.69;99043.48;234401;215;137322;-62
2023/11/18 02:41:52;;;;;;;5.40;4.00;;;;;;;6.22;69.94;99041.88;234560;215;148485;-61
2023/11/18 02:46:55;;;;;;;6.80;4.70;;;;;;;6.31;70.04;99046.56;234322;215;139466;-62
2023/11/18 02:51:58;;;;;;;6.90;4.80;;;;;;;6.39;69.97;99046.39;234337;215;137581;-63
2023/11/18 02:57:01;;;;;;;6.60;5.10;;;;;;;6.40;69.77;99045.60;234322;215;148496;-62
2023/11/18 03:02:06;;;;;;;7.60;5.50;;;;;;;6.42;70.08;99049.25;234325;213;139444;-62
2023/11/18 03:07:09;;;;;;;7.10;5.00;;;;;;;6.41;70.14;99052.99;234420;215;137355;-62
2023/11/18 03:12:13;;;;;;;9.00;5.70;;;;;;;6.36;70.39;99062.56;234411;215;148024;-62
2023/11/18 03:17:16;;;;;;;7.10;5.00;;;;;;;6.26;70.64;99066.17;234500;215;139104;-62
2023/11/18 03:22:19;;;;;;;8.30;5.50;;;;;;;6.20;70.94;99066.45;234429;215;137020;-62
2023/11/18 03:27:22;;;;;;;6.70;4.70;;;;;;;6.20;71.15;99076.33;234302;215;147836;-62
2023/11/18 03:32:26;;;;;;;5.90;4.30;;;;;;;6.17;71.04;99072.18;234324;212;138811;-62
2023/11/18 03:37:29;;;;;;;7.10;4.20;;;;;;;6.17;71.37;99072.18;234363;209;137629;-62
2023/11/18 03:42:32;;;;;;;5.90;4.90;;;;;;;6.25;71.46;99070.63;234444;215;148839;-62
2023/11/18 03:47:35;;;;;;;7.20;4.60;;;;;;;6.33;71.52;99073.24;234533;215;138761;-62
2023/11/18 03:52:39;;;;;;;5.40;4.10;;;;;;;6.35;71.35;99074.58;234406;215;136710;-62
2023/11/18 03:57:42;;;;;;;5.00;3.90;;;;;;;6.38;71.48;99078.65;234383;215;147588;-62
2023/11/18 04:02:48;;;;;;;6.40;4.40;;;;;;;6.40;71.61;99084.94;234257;215;139551;-62
2023/11/18 04:07:51;;;;;;;6.50;4.30;;;;;;;6.37;71.69;99087.52;234497;215;137333;-62
2023/11/18 04:12:55;;;;;;;6.60;4.80;;;;;;;6.38;71.79;99092.39;234383;215;148142;-63
2023/11/18 04:17:59;;;;;;;6.20;4.60;;;;;;;6.37;71.92;99089.66;234493;215;140236;-63
2023/11/18 04:23:04;;;;;;;4.80;3.90;;;;;;;6.36;72.10;99089.30;234449;215;136826;-63
2023/11/18 04:28:08;;;;;;;5.60;4.10;;;;;;;6.38;72.09;99087.27;234382;215;147661;-63
2023/11/18 04:33:14;;;;;;;5.60;4.00;;;;;;;6.43;72.11;99089.20;234286;215;138679;-63
2023/11/18 04:38:18;;;;;;;4.70;3.30;;;;;;;6.50;71.88;99098.40;234494;215;138660;-63
2023/11/18 04:43:24;;;;;;;5.00;3.50;;;;;;;6.55;71.40;99096.08;234386;215;148081;-63
2023/11/18 04:48:44;;;;;;;4.30;2.90;;;;;;;6.59;71.09;99095.20;234433;216;138956;-63
2023/11/18 04:53:48;;;;;;;3.30;2.80;;;;;;;6.62;70.96;99092.38;234604;215;137022;-63
2023/11/18 04:58:51;;;;;;;3.40;2.30;;;;;;;6.66;70.86;99095.40;234430;212;148090;-64
2023/11/18 05:03:54;;;;;;;3.20;2.20;;;;;;;6.65;70.59;99100.01;234293;215;139037;-63
2023/11/18 05:08:57;;;;;;;3.20;2.10;;;;;;;6.61;70.55;99102.31;234497;214;139519;-63
2023/11/18 05:14:02;;;;;;;2.10;1.90;;;;;;;6.55;70.61;99105.92;234407;213;146810;-65
2023/11/18 05:19:07;;;;;;;2.80;2.10;;;;;;;6.50;70.75;99110.19;234408;215;138796;-63
2023/11/18 05:24:10;;;;;;;2.40;2.20;;;;;;;6.47;71.10;99111.77;234523;215;139164;-62
2023/11/18 05:29:16;;;;;;;2.60;2.20;;;;;;;6.45;71.43;99113.42;234605;215;148400;-63
2023/11/18 05:34:20;;;;;;;6.00;3.20;;;;;;;6.48;71.95;99111.54;234369;215;139470;-62
2023/11/18 05:39:27;;;;;;;3.40;2.90;;;;;;;6.55;71.84;99116.15;234367;212;136575;-63
2023/11/18 05:44:37;;;;;;;4.10;3.20;;;;;;;6.53;71.92;99120.48;234340;215;148344;-64
2023/11/18 05:49:40;;;;;;;3.60;3.20;;;;;;;6.52;71.90;99121.77;234423;213;139006;-59
2023/11/18 05:54:44;;;;;;;107.90;83.90;;;;;;;6.57;72.39;99123.13;234408;215;136506;-60
2023/11/18 05:59:50;;;;;;;6.70;5.40;;;;;;;6.66;72.04;99122.92;234558;215;148219;-59
2023/11/18 06:04:54;;;;;;;4.30;3.50;;;;;;;6.67;72.01;99132.02;234390;215;139173;-58
2023/11/18 06:09:57;;;;;;;41.60;29.30;;;;;;;6.69;72.05;99137.58;234473;215;137596;-58
2023/11/18 06:15:01;;;;;;;5.10;2.60;;;;;;;6.68;71.62;99142.00;234327;207;284797;-59
2023/11/18 06:20:06;;;;;;;5.20;3.30;;;;;;;6.68;71.51;99139.73;234451;212;140055;-60
2023/11/18 06:25:09;;;;;;;5.10;3.10;;;;;;;6.71;71.77;99147.02;234370;215;137067;-60
2023/11/18 06:30:13;;;;;;;3.80;3.10;;;;;;;6.72;71.82;99155.77;234445;212;148273;-59
2023/11/18 06:35:16;;;;;;;3.00;2.10;;;;;;;6.75;72.14;99166.91;234510;215;139107;-59
2023/11/18 06:40:21;;;;;;;2.70;2.20;;;;;;;6.71;71.30;99179.80;234374;215;137116;-59
2023/11/18 06:45:25;;;;;;;3.20;1.80;;;;;;;6.60;70.75;99189.27;234381;214;147789;-59
2023/11/18 06:50:29;;;;;;;277.10;206.40;;;;;;;6.49;70.51;99193.10;234332;212;139669;-59
2023/11/18 06:55:35;;;;;;;30.40;19.50;;;;;;;6.41;71.02;99200.48;234355;212;138201;-59
2023/11/18 07:00:38;;;;;;;3.80;2.90;;;;;;;6.29;70.27;99202.38;234512;215;147778;-59
2023/11/18 07:05:41;;;;;;;1.90;1.60;;;;;;;6.13;70.27;99196.36;234514;212;139009;-59
2023/11/18 07:10:46;;;;;;;1.80;1.40;;;;;;;6.03;70.40;99199.61;234308;215;138978;-59
2023/11/18 07:15:50;;;;;;;1.70;1.30;;;;;;;5.95;70.53;99202.91;234335;214;148557;-59
2023/11/18 07:20:53;;;;;;;1.90;1.50;;;;;;;6.03;70.79;99207.19;234384;213;138857;-59
2023/11/18 07:25:57;;;;;;;2.00;1.50;;;;;;;6.10;71.00;99208.66;234458;213;137740;-59
2023/11/18 07:31:04;;;;;;;68.00;45.00;;;;;;;6.21;71.56;99205.04;234363;215;149720;-61
2023/11/18 07:36:11;;;;;;;2.90;2.10;;;;;;;6.46;71.87;99209.61;234598;215;139770;-60
2023/11/18 07:41:23;;;;;;;3.20;1.90;;;;;;;6.51;71.25;99208.01;234613;215;137382;-59
2023/11/18 07:46:28;;;;;;;2.20;2.00;;;;;;;6.56;70.54;99211.80;234395;215;148679;-60
2023/11/18 07:51:31;;;;;;;2.90;2.40;;;;;;;6.55;69.98;99206.74;234278;215;139303;-59
2023/11/18 07:56:36;;;;;;;3.70;2.60;;;;;;;6.55;69.56;99206.23;234426;215;137655;-59
2023/11/18 08:01:45;;;;;;;3.30;2.80;;;;;;;6.52;69.24;99209.88;234416;215;147562;-60
2023/11/18 08:06:49;;;;;;;3.90;2.90;;;;;;;6.55;69.15;99209.20;234304;215;139682;-60
2023/11/18 08:11:55;;;;;;;3.50;2.90;;;;;;;6.48;68.31;99209.36;234564;213;136817;-59
2023/11/18 08:16:59;;;;;;;429.10;270.90;;;;;;;6.59;68.44;99213.29;234387;213;148251;-59
2023/11/18 08:22:03;;;;;;;7.90;4.70;;;;;;;6.75;68.45;99218.41;234317;215;139995;-59
2023/11/18 08:27:06;;;;;;;6.30;4.10;;;;;;;6.89;67.79;99222.73;234452;213;137981;-59
2023/11/18 08:32:11;;;;;;;6.40;3.80;;;;;;;6.95;67.09;99230.58;234368;215;146715;-59
2023/11/18 08:37:14;;;;;;;7.10;4.70;;;;;;;6.92;66.95;99233.91;234430;214;138737;-60
2023/11/18 08:42:17;;;;;;;7.50;5.50;;;;;;;6.88;66.93;99245.54;234451;213;137645;-59
2023/11/18 08:47:20;;;;;;;8.60;5.70;;;;;;;6.81;66.61;99248.64;234491;212;147627;-59
2023/11/18 08:52:25;;;;;;;7.70;6.20;;;;;;;6.74;66.66;99251.41;234413;215;139260;-59
2023/11/18 08:57:47;;;;;;;9.70;5.40;;;;;;;6.75;66.67;99258.44;234347;213;136412;-59
2023/11/18 09:02:52;;;;;;;7.30;5.60;;;;;;;6.72;66.56;99266.33;234418;213;149191;-60
2023/11/18 09:07:57;;;;;;;8.20;6.10;;;;;;;6.69;66.77;99269.96;234636;211;138874;-57
2023/11/18 09:13:03;;;;;;;7.60;5.90;;;;;;;6.72;67.05;99274.77;234649;212;136516;-57
2023/11/18 09:18:09;;;;;;;;;;;;;;;6.69;66.65;99287.61;234842;214;147422;-59
2023/11/18 09:23:15;;;;;;;278.40;182.70;;;;;;;6.65;67.18;99297.48;234749;212;139462;-59
2023/11/18 09:28:19;;;;;;;9.00;6.00;;;;;;;6.68;67.56;99308.64;234844;211;138585;-57
2023/11/18 09:33:33;;;;;;;7.50;5.30;;;;;;;6.70;67.58;99310.66;234524;212;147905;-66
2023/11/18 09:38:42;;;;;;;16.30;7.20;;;;;;;6.70;68.23;99318.79;234331;214;139662;-62
2023/11/18 09:43:52;;;;;;;8.20;4.60;;;;;;;6.66;68.27;99323.71;234238;212;137114;-61
2023/11/18 09:49:25;;;;;;;5.60;4.30;;;;;;;6.58;68.31;99332.65;234488;207;148227;-61
2023/11/18 09:54:52;;;;;;;6.30;4.80;;;;;;;6.48;67.79;99343.83;234432;213;138860;-61
2023/11/18 10:05:30;;;;;;;8.90;6.40;;;;;;;6.34;67.59;99345.60;234373;213;147531;-61
2023/11/18 10:10:38;;;;;;;7.70;6.40;;;;;;;6.33;67.26;99347.59;234237;213;140253;-60
2023/11/18 10:15:41;;;;;;;8.60;6.40;;;;;;;6.25;67.13;99349.88;234250;213;137519;-61
2023/11/18 10:20:46;;;;;;;8.80;6.70;;;;;;;6.24;67.09;99370.86;234234;215;148163;-62
2023/11/18 10:25:52;;;;;;;18.80;12.60;;;;;;;6.24;67.22;99369.80;234285;213;139014;-62
2023/11/18 10:30:57;;;;;;;7.40;6.60;;;;;;;6.27;66.71;99381.14;234286;215;137220;-62
2023/11/18 10:36:05;;;;;;;7.50;6.20;;;;;;;6.25;66.15;99379.13;234360;212;148186;-61
2023/11/18 10:41:09;;;;;;;7.10;6.00;;;;;;;6.21;65.89;99392.98;234193;208;138916;-60
2023/11/18 10:46:15;;;;;;;8.20;6.50;;;;;;;6.16;65.09;99400.59;234194;214;137480;-62
2023/11/18 10:51:20;;;;;;;7.10;6.20;;;;;;;6.07;65.32;99399.50;234279;213;147408;-61
2023/11/18 10:56:28;;;;;;;8.00;6.70;;;;;;;6.04;65.65;99409.31;234197;214;139449;-62
2023/11/18 11:01:42;;;;;;;7.60;6.40;;;;;;;5.97;65.73;99413.46;234235;213;137752;-62
2023/11/18 11:06:53;;;;;;;8.40;6.30;;;;;;;5.99;65.81;99422.36;234186;213;148592;-62
2023/11/18 11:12:04;;;;;;;8.60;6.70;;;;;;;6.04;65.61;99420.94;234337;216;138924;-62
2023/11/18 11:17:14;;;;;;;7.60;6.40;;;;;;;6.05;65.17;99426.92;234260;213;137274;-62
2023/11/18 11:22:29;;;;;;;254.90;173.00;;;;;;;6.01;64.56;99436.73;234223;213;147353;-62
2023/11/18 11:27:49;;;;;;;16.90;13.50;;;;;;;6.08;64.34;99443.16;234113;213;140221;-61
2023/11/18 11:33:03;;;;;;;7.20;6.00;;;;;;;6.09;63.67;99447.53;234192;213;136645;-61
2023/11/18 11:38:09;;;;;;;9.20;5.80;;;;;;;6.03;63.56;99451.80;234261;213;147832;-62
2023/11/18 11:43:21;;;;;;;8.00;4.70;;;;;;;6.01;63.89;99455.40;234111;215;139689;-61
2023/11/18 11:48:26;;;;;;;6.20;4.60;;;;;;;5.96;63.31;99465.27;234213;208;136649;-62
2023/11/18 11:53:38;;;;;;;134.10;101.50;;;;;;;5.91;63.78;99472.28;234512;213;147357;-66
2023/11/18 11:58:45;;;;;;;8.20;6.90;;;;;;;6.06;65.05;99475.29;234164;208;139899;-65
2023/11/18 12:03:49;;;;;;;7.30;5.00;;;;;;;6.07;62.69;99483.37;234194;209;136933;-63
2023/11/18 12:08:54;;;;;;;7.80;5.30;;;;;;;5.94;61.96;99486.30;234160;213;147651;-63
2023/11/18 12:19:47;;;;;;;5.90;4.30;;;;;;;5.83;62.53;99500.04;234195;213;138085;-62
2023/11/18 12:25:06;;;;;;;6.00;4.70;;;;;;;5.79;62.88;99502.64;234194;213;147570;-63
2023/11/18 12:30:15;;;;;;;6.30;4.80;;;;;;;5.75;62.82;99510.36;234355;213;138946;-63
2023/11/18 12:35:19;;;;;;;84.40;64.90;;;;;;;5.80;63.54;99516.52;234295;213;138298;-65
2023/11/18 12:40:50;;;;;;;6.90;5.50;;;;;;;5.89;63.35;99517.42;234288;212;150103;-65
2023/11/18 12:47:14;;;;;;;7.10;5.10;;;;;;;5.91;62.73;99522.65;234139;209;139090;-63
2023/11/18 12:52:21;;;;;;;;;;;;;;;5.84;62.78;99532.21;233936;212;136409;-63
2023/11/18 12:57:31;;;;;;;8.00;5.20;;;;;;;5.75;63.00;99537.80;234222;213;147674;-62
2023/11/18 13:02:35;;;;;;;7.00;4.80;;;;;;;5.71;63.13;99546.23;234102;214;140042;-61
2023/11/18 13:22:39;;;;;;;6.40;5.20;;;;;;;5.25;63.87;99574.65;232861;217;698491;-67
2023/11/18 13:27:50;;;;;;;7.40;5.40;;;;;;;5.13;63.86;99580.86;233595;217;136569;-57
2023/11/18 13:32:54;;;;;;;6.20;5.20;;;;;;;5.10;63.75;99589.73;233513;213;144902;-59
2023/11/18 13:37:58;;;;;;;6.70;5.20;;;;;;;5.11;64.00;99594.80;233735;218;139960;-63
2023/11/18 13:43:05;;;;;;;7.40;5.00;;;;;;;5.14;63.46;99597.71;234193;209;136612;-63
2023/11/18 13:48:08;;;;;;;10.60;7.90;;;;;;;5.11;64.72;99608.17;234274;215;144829;-62
2023/11/18 13:53:13;;;;;;;6.10;4.90;;;;;;;5.11;63.69;99614.50;234114;213;139241;-62
2023/11/18 13:58:16;;;;;;;67.60;44.10;;;;;;;5.11;63.49;99624.69;234181;214;137246;-63
2023/11/18 14:03:20;;;;;;;10.10;7.30;;;;;;;5.25;64.41;99619.52;234149;214;144121;-62
2023/11/18 14:08:24;;;;;;;7.10;5.50;;;;;;;5.30;63.81;99637.50;234112;214;140001;-62
2023/11/18 14:13:30;;;;;;;5.70;4.50;;;;;;;5.33;63.02;99649.73;234090;214;136462;-62
2023/11/18 14:18:36;;;;;;;6.30;4.50;;;;;;;5.35;62.64;99657.73;233965;214;147189;-63
2023/11/18 14:23:39;;;;;;;5.70;4.80;;;;;;;5.30;62.24;99658.61;234232;214;138861;-64
2023/11/18 14:28:43;;;;;;;7.30;5.30;;;;;;;5.28;62.56;99667.11;234164;214;136409;-63
2023/11/18 14:33:46;;;;;;;9.40;5.70;;;;;;;5.28;62.45;99661.49;234229;214;145596;-63
2023/11/18 14:38:50;;;;;;;6.70;4.70;;;;;;;5.29;62.55;99666.54;234149;215;138907;-63
2023/11/18 14:43:53;;;;;;;355.20;258.30;;;;;;;5.27;63.50;99671.73;234226;213;136910;-50
2023/11/18 14:48:59;;;;;;;10.90;8.20;;;;;;;5.35;64.76;99676.40;234088;210;146147;-62
2023/11/18 14:54:03;;;;;;;62.80;40.20;;;;;;;5.31;63.30;99677.55;234243;214;138826;-62
2023/11/18 14:59:07;;;;;;;9.00;6.40;;;;;;;5.31;62.96;99678.46;234103;215;137617;-59
2023/11/18 15:04:11;;;;;;;8.30;6.50;;;;;;;5.20;62.83;99681.77;234048;214;146269;-59
2023/11/18 15:09:15;;;;;;;7.60;6.40;;;;;;;5.13;62.95;99686.89;233869;217;140761;-60
2023/11/18 15:14:18;;;;;;;8.00;5.50;;;;;;;5.12;63.07;99691.15;233929;216;136712;-59
2023/11/18 15:19:21;;;;;;;342.00;209.50;;;;;;;5.06;64.04;99701.70;233941;212;145633;-57
2023/11/18 15:24:25;;;;;;;294.40;143.10;;;;;;;5.14;64.94;99704.64;233993;216;138284;-61
2023/11/18 15:29:33;;;;;;;11.50;7.40;;;;;;;5.24;63.86;99706.45;234060;216;137648;-62
2023/11/18 15:34:36;;;;;;;8.50;5.90;;;;;;;5.16;63.27;99714.77;233937;215;146458;-62
2023/11/18 15:39:41;;;;;;;9.00;6.40;;;;;;;5.20;63.26;99716.05;233940;215;139224;-62
2023/11/18 15:44:44;;;;;;;6.90;5.90;;;;;;;5.35;63.36;99718.60;233977;215;136609;-63
2023/11/18 15:49:47;;;;;;;6.80;5.70;;;;;;;5.36;62.92;99724.02;233976;218;145767;-62
2023/11/18 15:54:50;;;;;;;6.30;5.30;;;;;;;5.35;62.48;99723.54;233911;212;138932;-62
2023/11/18 15:59:53;;;;;;;7.10;5.40;;;;;;;5.33;62.99;99732.23;234183;216;136410;-63
2023/11/18 16:04:56;;;;;;;9.40;6.30;;;;;;;5.28;62.89;99735.88;234065;215;147422;-61
2023/11/18 16:10:00;;;;;;;8.40;6.30;;;;;;;5.17;62.53;99741.30;233959;216;138855;-63
2023/11/18 16:15:05;;;;;;;9.40;7.10;;;;;;;5.11;63.03;99740.77;234019;210;136282;-61
2023/11/18 16:20:09;;;;;;;9.60;6.40;;;;;;;5.15;63.45;99748.08;234039;216;145763;-61
2023/11/18 16:25:19;;;;;;;11.00;6.20;;;;;;;5.14;63.79;99745.81;233958;216;138603;-60
2023/11/18 16:30:24;;;;;;;8.80;6.60;;;;;;;5.12;63.45;99737.05;234180;216;136152;-60
2023/11/18 16:35:28;;;;;;;8.40;6.70;;;;;;;5.09;63.67;99742.25;234049;211;145763;-61
2023/11/18 16:40:33;;;;;;;10.40;6.10;;;;;;;5.10;63.68;99752.76;234042;210;138698;-61
2023/11/18 16:45:37;;;;;;;9.00;6.80;;;;;;;5.12;64.06;99754.81;234098;210;137520;-61
2023/11/18 16:50:40;;;;;;;10.40;7.30;;;;;;;5.13;64.23;99763.41;234050;216;145463;-62
2023/11/18 16:55:44;;;;;;;10.50;7.40;;;;;;;5.13;64.25;99765.33;234050;214;138954;-62
2023/11/18 17:00:51;;;;;;;11.40;7.50;;;;;;;5.16;64.38;99764.55;233890;216;137328;-62
2023/11/18 17:05:54;;;;;;;11.60;7.90;;;;;;;5.13;64.14;99766.75;234106;211;146110;-64
2023/11/18 17:10:58;;;;;;;10.60;8.00;;;;;;;5.15;64.33;99760.02;234046;215;138847;-62
2023/11/18 17:16:01;;;;;;;12.30;9.30;;;;;;;5.16;64.64;99754.88;234206;215;140489;-62
2023/11/18 17:21:05;;;;;;;12.40;8.10;;;;;;;5.19;64.51;99765.35;234114;215;146075;-62
2023/11/18 17:26:08;;;;;;;11.60;8.80;;;;;;;5.07;64.21;99770.59;234109;215;138631;-62
2023/11/18 17:31:12;;;;;;;11.80;8.30;;;;;;;5.02;64.93;99765.81;234141;214;137163;-60
2023/11/18 17:36:19;;;;;;;122.00;86.90;;;;;;;5.03;67.34;99773.02;234230;214;145785;-59
2023/11/18 17:41:46;;;;;;;15.30;10.20;;;;;;;5.53;66.88;99760.51;234172;215;140561;-58
2023/11/18 17:46:49;;;;;;;12.70;8.10;;;;;;;5.76;66.68;99768.59;234092;214;137075;-59
2023/11/18 17:51:53;;;;;;;10.20;8.20;;;;;;;5.75;64.46;99765.27;234170;213;146481;-60
2023/11/18 17:56:58;;;;;;;13.00;8.70;;;;;;;5.55;63.91;99778.57;234122;214;139029;-59
2023/11/18 18:02:01;;;;;;;11.00;7.90;;;;;;;5.38;64.25;99764.63;233991;209;138152;-60
2023/11/18 18:07:04;;;;;;;11.90;8.70;;;;;;;5.30;64.82;99766.80;234093;214;151460;-60
2023/11/18 18:12:08;;;;;;;12.00;8.70;;;;;;;5.29;65.33;99766.11;234305;213;138860;-61
2023/11/18 18:17:11;;;;;;;13.20;8.90;;;;;;;5.26;65.23;99762.16;234102;214;136111;-59
2023/11/18 18:22:14;;;;;;;13.70;8.10;;;;;;;5.25;65.10;99763.96;234115;214;147398;-61
2023/11/18 18:27:19;;;;;;;12.60;8.70;;;;;;;5.21;64.81;99783.22;234078;210;139714;-61
2023/11/18 18:32:23;;;;;;;32.90;20.80;;;;;;;5.21;66.14;99778.99;234097;213;136603;-60
2023/11/18 18:37:26;;;;;;;75.80;44.90;;;;;;;5.34;65.35;99788.67;234098;214;145768;-56
2023/11/18 18:42:30;;;;;;;35.40;24.00;;;;;;;5.40;65.28;99778.13;234164;208;139278;-59
2023/11/18 18:47:33;;;;;;;12.90;9.50;;;;;;;5.41;64.28;99771.92;234052;215;136821;-60
2023/11/18 18:52:36;;;;;;;11.00;8.00;;;;;;;5.34;63.93;99766.53;233566;210;147525;-60
2023/11/18 18:57:40;;;;;;;13.50;8.50;;;;;;;5.21;64.06;99768.27;234170;215;138768;-60
2023/11/18 19:02:43;;;;;;;13.20;8.30;;;;;;;5.15;64.11;99771.09;234205;214;139729;-60
2023/11/18 19:07:46;;;;;;;10.90;8.30;;;;;;;5.11;64.14;99757.30;234144;209;145978;-61
2023/11/18 19:12:53;;;;;;;15.20;10.50;;;;;;;5.09;63.97;99758.78;234203;214;139303;-62
2023/11/18 19:17:57;;;;;;;10.30;7.80;;;;;;;5.06;64.01;99762.91;234405;214;139708;-61
2023/11/18 19:23:01;;;;;;;11.20;7.80;;;;;;;5.05;64.24;99764.16;234299;214;148847;-62
2023/11/18 19:28:08;;;;;;;10.60;7.60;;;;;;;5.01;64.34;99749.52;234261;215;138842;-62
2023/11/18 19:33:14;;;;;;;12.10;7.90;;;;;;;5.00;64.32;99746.73;234162;215;139230;-61
2023/11/18 19:38:17;;;;;;;11.20;8.10;;;;;;;4.97;64.36;99751.71;234212;217;145835;-61
2023/11/18 19:43:21;;;;;;;10.80;7.90;;;;;;;4.98;64.39;99742.03;233994;215;139379;-62
2023/11/18 19:48:24;;;;;;;11.20;8.30;;;;;;;4.98;64.45;99726.20;234354;216;136151;-61
2023/11/18 19:53:28;;;;;;;10.60;8.60;;;;;;;4.97;64.26;99729.57;234273;215;145995;-61
2023/11/18 19:58:32;;;;;;;13.00;8.60;;;;;;;4.95;64.27;99728.56;234211;216;139985;-61
2023/11/18 20:03:35;;;;;;;10.40;7.80;;;;;;;4.89;64.57;99724.87;234207;217;136474;-59
2023/11/18 20:08:38;;;;;;;10.70;8.20;;;;;;;4.88;64.49;99722.61;234214;216;145740;-59
2023/11/18 20:13:41;;;;;;;13.80;8.90;;;;;;;4.88;64.61;99720.67;234224;216;139098;-59
2023/11/18 20:18:45;;;;;;;12.90;9.40;;;;;;;4.85;64.95;99714.61;234309;216;136477;-60
2023/11/18 20:23:48;;;;;;;13.00;9.50;;;;;;;4.86;64.78;99707.20;234353;215;145864;-60
2023/11/18 20:28:51;;;;;;;12.40;9.80;;;;;;;4.85;64.91;99712.30;234277;216;139584;-59
2023/11/18 20:33:55;;;;;;;16.20;10.70;;;;;;;4.85;65.10;99702.98;234249;215;137094;-60
2023/11/18 20:38:58;;;;;;;13.30;10.40;;;;;;;4.89;65.22;99705.52;234200;212;145657;-60
2023/11/18 20:44:02;;;;;;;13.60;10.60;;;;;;;4.92;65.02;99712.98;234137;215;138599;-60
2023/11/18 20:49:05;;;;;;;13.40;9.90;;;;;;;4.90;64.96;99708.15;234304;216;137601;-59
2023/11/18 20:54:09;;;;;;;17.10;9.80;;;;;;;4.94;65.00;99708.20;234319;216;147353;-59
2023/11/18 20:59:12;;;;;;;14.40;10.60;;;;;;;4.99;64.80;99708.41;234191;216;139849;-59
2023/11/18 21:04:16;;;;;;;15.50;10.60;;;;;;;5.04;64.76;99710.92;234210;209;137356;-60
2023/11/18 21:09:20;;;;;;;14.60;10.60;;;;;;;5.10;64.59;99694.55;234251;216;145876;-59
2023/11/18 21:14:24;;;;;;;14.10;10.20;;;;;;;5.07;64.29;99675.64;234179;213;139372;-61
2023/11/18 21:19:27;;;;;;;16.50;10.20;;;;;;;5.07;64.17;99675.84;234243;216;136843;-59
2023/11/18 21:24:31;;;;;;;15.50;10.90;;;;;;;5.03;64.17;99673.83;234327;214;146438;-60
2023/11/18 21:29:34;;;;;;;15.30;10.70;;;;;;;4.98;64.25;99662.70;234180;215;138826;-60
2023/11/18 21:34:40;;;;;;;15.40;11.00;;;;;;;5.01;64.31;99655.95;234206;214;137780;-59
2023/11/18 21:39:44;;;;;;;13.50;10.20;;;;;;;5.07;64.69;99651.20;233847;217;145840;-59
2023/11/18 21:44:48;;;;;;;13.40;10.20;;;;;;;5.03;64.02;99672.42;234187;215;138921;-60
2023/11/18 21:49:51;;;;;;;14.30;10.30;;;;;;;4.97;64.31;99672.41;234114;215;139126;-60
2023/11/18 21:54:54;;;;;;;15.70;10.40;;;;;;;4.96;64.12;99665.77;234193;217;148110;-60
2023/11/18 21:59:57;;;;;;;19.50;11.60;;;;;;;4.93;64.42;99647.73;234372;216;139295;-59
2023/11/18 22:05:01;;;;;;;13.10;10.60;;;;;;;4.99;64.97;99643.70;234283;216;136905;-60
2023/11/18 22:10:06;;;;;;;17.40;11.70;;;;;;;5.01;64.89;99632.91;234273;215;149591;-59
2023/11/18 22:15:09;;;;;;;15.70;11.60;;;;;;;5.06;64.60;99643.15;234173;213;139019;-59
2023/11/18 22:20:14;;;;;;;16.00;11.40;;;;;;;5.07;64.14;99652.77;234176;216;137603;-61
2023/11/18 22:25:18;;;;;;;17.90;12.20;;;;;;;5.06;64.10;99660.02;234227;216;148400;-59
2023/11/18 22:30:23;;;;;;;20.20;12.60;;;;;;;5.07;64.06;99665.28;234337;209;138622;-59
2023/11/18 22:35:27;;;;;;;19.50;12.60;;;;;;;5.04;64.08;99659.55;234278;214;137850;-59
2023/11/18 22:40:30;;;;;;;21.40;13.50;;;;;;;5.02;64.14;99659.08;234246;214;148112;-60
2023/11/18 22:45:34;;;;;;;18.70;12.70;;;;;;;4.97;64.35;99648.68;234195;215;139429;-58
2023/11/18 22:50:38;;;;;;;18.80;13.00;;;;;;;4.97;64.49;99639.20;234268;214;136795;-58
2023/11/18 22:55:41;;;;;;;25.50;17.90;;;;;;;5.00;64.81;99627.14;234182;215;148779;-58
2023/11/18 23:00:51;;;;;;;19.00;13.40;;;;;;;5.01;64.69;99616.21;234101;215;138910;-59
2023/11/18 23:05:59;;;;;;;18.70;12.80;;;;;;;5.00;64.45;99592.70;234344;215;137837;-58
2023/11/18 23:11:17;;;;;;;17.70;13.00;;;;;;;5.03;64.22;99584.16;234269;216;147534;-59
2023/11/18 23:16:20;;;;;;;18.50;12.60;;;;;;;5.02;64.15;99586.10;234245;214;139840;-58
2023/11/18 23:21:26;;;;;;;20.20;13.80;;;;;;;5.02;64.14;99598.58;234262;210;137827;-56
2023/11/18 23:26:29;;;;;;;20.80;13.80;;;;;;;5.04;64.29;99599.41;234196;209;148898;-58
2023/11/18 23:31:33;;;;;;;18.70;12.70;;;;;;;5.03;64.10;99595.94;233561;215;138854;-60
2023/11/18 23:36:38;;;;;;;21.60;13.40;;;;;;;5.05;64.00;99602.02;234263;215;137768;-61
2023/11/18 23:41:45;;;;;;;20.30;13.70;;;;;;;5.04;64.08;99594.48;234349;209;147492;-60
2023/11/18 23:46:49;;;;;;;21.00;13.30;;;;;;;5.03;64.01;99596.45;234023;217;139050;-60
2023/11/18 23:51:52;;;;;;;19.60;13.30;;;;;;;5.01;64.03;99594.94;234210;216;137002;-60
2023/11/18 23:56:55;;;;;;;22.30;14.30;;;;;;;5.00;64.00;99594.45;234185;216;148042;-60
